Peleus — V2FV2 — position and weather

sailwx.info

Track history (hours):
 
Tides and Currents Weather Stations Pressure Air Temp Water Temp Dewpoint Dewpoint Depression Visibility Wind Speed Wind Dir Waves Ship Positions

Peleus

Last reported at 2015-Aug-01 01:12 UTC. Time now 2015-Aug-29 21:02 UTC.
Position N 36°55' E 023°38'.
Warning: this ship's position is 28 days out of date.

Length 88 m; draft 5.7 m.

Type: Cargo ship. MMSI: 305810000.

Date/timePositionNaut miles runAvg speedWind from/ knotsBaromVisibWave heightAir tempDewpointWater temp
2015-Aug-01 01:12N 36°55' E 023°38'5 8.1
2015-Aug-01 00:33N 36°59' E 023°41'8 8.3
2015-Jul-31 23:33N 37°05' E 023°48'9 8.9
2015-Jul-31 22:33N 37°12' E 023°55'8 8.4
2015-Jul-31 21:33N 37°17' E 024°03'  
2015-Jul-23 03:20N 41°02' E 029°00'6 8.0
2015-Jul-23 02:33N 40°56' E 028°57'3 0.3
2015-Jul-22 16:13N 40°58' E 028°56'0 0.0
2015-Jul-22 14:33N 40°58' E 028°56'7 6.6
2015-Jul-22 13:33N 40°52' E 028°54'9 8.6
2015-Jul-22 12:33N 40°44' E 028°50'9 9.1
2015-Jul-22 11:32N 40°35' E 028°45'15 7.3
2015-Jul-22 09:31N 40°26' E 028°60'4 3.7
2015-Jul-22 08:30N 40°25' E 029°05'0 0.0
2015-Jul-22 07:18N 40°25' E 029°05'  
Track history (hours):
 
Tides and Currents Weather Stations Pressure Air Temp Water Temp Dewpoint Dewpoint Depression Visibility Wind Speed Wind Dir Waves Ship Positions

Peleus

Last reported at 2015-Aug-01 01:12 UTC. Time now 2015-Aug-29 21:02 UTC.
Position N 36°55' E 023°38'.
Warning: this ship's position is 28 days out of date.

Length 88 m; draft 5.7 m.

Type: Cargo ship. MMSI: 305810000.

Date/timePositionNaut miles runAvg speedWind from/ knotsBaromVisibWave heightAir tempDewpointWater temp
2015-Aug-01 01:12N 36°55' E 023°38'5 8.1
2015-Aug-01 00:33N 36°59' E 023°41'8 8.3
2015-Jul-31 23:33N 37°05' E 023°48'9 8.9
2015-Jul-31 22:33N 37°12' E 023°55'8 8.4
2015-Jul-31 21:33N 37°17' E 024°03'  
2015-Jul-23 03:20N 41°02' E 029°00'6 8.0
2015-Jul-23 02:33N 40°56' E 028°57'3 0.3
2015-Jul-22 16:13N 40°58' E 028°56'0 0.0
2015-Jul-22 14:33N 40°58' E 028°56'7 6.6
2015-Jul-22 13:33N 40°52' E 028°54'9 8.6
2015-Jul-22 12:33N 40°44' E 028°50'9 9.1
2015-Jul-22 11:32N 40°35' E 028°45'15 7.3
2015-Jul-22 09:31N 40°26' E 028°60'4 3.7
2015-Jul-22 08:30N 40°25' E 029°05'0 0.0
2015-Jul-22 07:18N 40°25' E 029°05'  

Dump ship's entire track history